sensor_id;sensor_type;location;lat;lon;timestamp;P1;durP1;ratioP1;P2;durP2;ratioP2
23400;SDS011;11873;49.300;8.920;2023-02-15T00:02:35;16.27;;;12.70;;
23400;SDS011;11873;49.300;8.920;2023-02-15T00:07:36;19.23;;;12.87;;
23400;SDS011;11873;49.300;8.920;2023-02-15T00:12:36;14.60;;;11.07;;
23400;SDS011;11873;49.300;8.920;2023-02-15T00:17:36;20.73;;;14.17;;
23400;SDS011;11873;49.300;8.920;2023-02-15T00:22:36;18.37;;;13.07;;
23400;SDS011;11873;49.300;8.920;2023-02-15T00:27:36;19.87;;;13.77;;
23400;SDS011;11873;49.300;8.920;2023-02-15T00:32:36;16.47;;;11.93;;
23400;SDS011;11873;49.300;8.920;2023-02-15T00:37:37;16.30;;;12.27;;
23400;SDS011;11873;49.300;8.920;2023-02-15T00:42:37;15.93;;;12.37;;
23400;SDS011;11873;49.300;8.920;2023-02-15T00:47:37;16.13;;;11.97;;
23400;SDS011;11873;49.300;8.920;2023-02-15T00:52:37;17.27;;;12.83;;
23400;SDS011;11873;49.300;8.920;2023-02-15T00:57:37;16.90;;;12.67;;
23400;SDS011;11873;49.300;8.920;2023-02-15T01:02:37;17.67;;;12.77;;
23400;SDS011;11873;49.300;8.920;2023-02-15T01:07:38;16.03;;;12.17;;
23400;SDS011;11873;49.300;8.920;2023-02-15T01:12:38;15.77;;;12.20;;
23400;SDS011;11873;49.300;8.920;2023-02-15T01:17:38;17.37;;;12.57;;
23400;SDS011;11873;49.300;8.920;2023-02-15T01:22:38;15.87;;;12.43;;
23400;SDS011;11873;49.300;8.920;2023-02-15T01:27:38;18.13;;;12.03;;
23400;SDS011;11873;49.300;8.920;2023-02-15T01:32:39;17.87;;;12.50;;
23400;SDS011;11873;49.300;8.920;2023-02-15T01:37:39;19.73;;;13.10;;
23400;SDS011;11873;49.300;8.920;2023-02-15T01:42:39;21.63;;;13.27;;
23400;SDS011;11873;49.300;8.920;2023-02-15T01:47:43;17.13;;;11.70;;
23400;SDS011;11873;49.300;8.920;2023-02-15T01:52:55;19.47;;;13.70;;
23400;SDS011;11873;49.300;8.920;2023-02-15T01:57:57;16.20;;;12.93;;
23400;SDS011;11873;49.300;8.920;2023-02-15T02:02:58;18.40;;;12.37;;
23400;SDS011;11873;49.300;8.920;2023-02-15T02:07:59;16.87;;;13.60;;
23400;SDS011;11873;49.300;8.920;2023-02-15T02:13:02;18.77;;;13.37;;
23400;SDS011;11873;49.300;8.920;2023-02-15T02:18:04;16.10;;;12.23;;
23400;SDS011;11873;49.300;8.920;2023-02-15T02:23:23;19.23;;;12.13;;
23400;SDS011;11873;49.300;8.920;2023-02-15T02:44:17;19.43;;;14.67;;
23400;SDS011;11873;49.300;8.920;2023-02-15T02:49:15;15.67;;;12.57;;
23400;SDS011;11873;49.300;8.920;2023-02-15T02:54:15;18.83;;;13.63;;
23400;SDS011;11873;49.300;8.920;2023-02-15T02:59:16;16.10;;;13.00;;
23400;SDS011;11873;49.300;8.920;2023-02-15T03:04:23;15.73;;;12.40;;
23400;SDS011;11873;49.300;8.920;2023-02-15T03:09:26;19.17;;;13.60;;
23400;SDS011;11873;49.300;8.920;2023-02-15T03:14:27;17.73;;;13.40;;
23400;SDS011;11873;49.300;8.920;2023-02-15T03:19:28;15.67;;;12.10;;
23400;SDS011;11873;49.300;8.920;2023-02-15T03:24:32;18.43;;;12.63;;
23400;SDS011;11873;49.300;8.920;2023-02-15T03:29:33;15.37;;;11.30;;
23400;SDS011;11873;49.300;8.920;2023-02-15T03:34:34;14.90;;;11.63;;
23400;SDS011;11873;49.300;8.920;2023-02-15T03:39:40;14.90;;;10.80;;
23400;SDS011;11873;49.300;8.920;2023-02-15T03:44:54;13.03;;;11.13;;
23400;SDS011;11873;49.300;8.920;2023-02-15T03:54:59;15.63;;;11.67;;
23400;SDS011;11873;49.300;8.920;2023-02-15T04:00:00;13.97;;;11.27;;
23400;SDS011;11873;49.300;8.920;2023-02-15T04:05:01;15.37;;;11.43;;
23400;SDS011;11873;49.300;8.920;2023-02-15T04:10:01;16.23;;;11.47;;
23400;SDS011;11873;49.300;8.920;2023-02-15T04:15:01;13.33;;;9.77;;
23400;SDS011;11873;49.300;8.920;2023-02-15T04:20:02;15.13;;;11.37;;
23400;SDS011;11873;49.300;8.920;2023-02-15T04:25:02;13.73;;;11.23;;
23400;SDS011;11873;49.300;8.920;2023-02-15T04:30:03;13.93;;;11.33;;
23400;SDS011;11873;49.300;8.920;2023-02-15T04:35:03;14.60;;;11.43;;
23400;SDS011;11873;49.300;8.920;2023-02-15T04:40:04;15.77;;;11.60;;
23400;SDS011;11873;49.300;8.920;2023-02-15T04:45:05;14.70;;;11.07;;
23400;SDS011;11873;49.300;8.920;2023-02-15T04:50:05;14.13;;;11.13;;
23400;SDS011;11873;49.300;8.920;2023-02-15T04:55:06;14.90;;;11.50;;
23400;SDS011;11873;49.300;8.920;2023-02-15T05:00:06;16.40;;;12.20;;
23400;SDS011;11873;49.300;8.920;2023-02-15T05:05:07;15.57;;;12.23;;
23400;SDS011;11873;49.300;8.920;2023-02-15T05:10:07;12.68;;;10.43;;
23400;SDS011;11873;49.300;8.920;2023-02-15T05:15:07;15.93;;;12.27;;
23400;SDS011;11873;49.300;8.920;2023-02-15T05:20:08;14.23;;;11.13;;
23400;SDS011;11873;49.300;8.920;2023-02-15T05:25:08;13.23;;;10.53;;
23400;SDS011;11873;49.300;8.920;2023-02-15T05:30:09;15.40;;;12.00;;
23400;SDS011;11873;49.300;8.920;2023-02-15T05:35:15;14.70;;;10.97;;
23400;SDS011;11873;49.300;8.920;2023-02-15T05:40:16;13.83;;;10.97;;
23400;SDS011;11873;49.300;8.920;2023-02-15T05:45:16;14.47;;;11.70;;
23400;SDS011;11873;49.300;8.920;2023-02-15T05:50:16;11.67;;;10.47;;
23400;SDS011;11873;49.300;8.920;2023-02-15T05:55:17;14.60;;;11.52;;
23400;SDS011;11873;49.300;8.920;2023-02-15T06:00:17;15.67;;;12.30;;
23400;SDS011;11873;49.300;8.920;2023-02-15T06:05:17;13.60;;;11.17;;
23400;SDS011;11873;49.300;8.920;2023-02-15T06:10:17;14.33;;;11.90;;
23400;SDS011;11873;49.300;8.920;2023-02-15T06:15:18;12.83;;;11.03;;
23400;SDS011;11873;49.300;8.920;2023-02-15T06:20:18;11.13;;;9.93;;
23400;SDS011;11873;49.300;8.920;2023-02-15T06:25:18;13.67;;;10.67;;
23400;SDS011;11873;49.300;8.920;2023-02-15T06:30:19;11.43;;;9.73;;
23400;SDS011;11873;49.300;8.920;2023-02-15T06:35:19;13.27;;;10.67;;
23400;SDS011;11873;49.300;8.920;2023-02-15T06:40:19;13.17;;;11.43;;
23400;SDS011;11873;49.300;8.920;2023-02-15T06:45:19;14.43;;;11.80;;
23400;SDS011;11873;49.300;8.920;2023-02-15T06:50:19;11.07;;;8.67;;
23400;SDS011;11873;49.300;8.920;2023-02-15T06:55:19;13.30;;;10.67;;
23400;SDS011;11873;49.300;8.920;2023-02-15T07:00:20;12.70;;;11.20;;
23400;SDS011;11873;49.300;8.920;2023-02-15T07:05:20;14.00;;;11.30;;
23400;SDS011;11873;49.300;8.920;2023-02-15T07:10:21;13.83;;;12.30;;
23400;SDS011;11873;49.300;8.920;2023-02-15T07:15:21;13.27;;;11.43;;
23400;SDS011;11873;49.300;8.920;2023-02-15T07:20:22;13.70;;;11.37;;
23400;SDS011;11873;49.300;8.920;2023-02-15T07:25:22;14.43;;;12.37;;
23400;SDS011;11873;49.300;8.920;2023-02-15T07:30:22;15.43;;;12.77;;
23400;SDS011;11873;49.300;8.920;2023-02-15T07:35:22;11.03;;;9.87;;
23400;SDS011;11873;49.300;8.920;2023-02-15T07:40:23;13.80;;;11.40;;
23400;SDS011;11873;49.300;8.920;2023-02-15T07:45:23;15.77;;;12.83;;
23400;SDS011;11873;49.300;8.920;2023-02-15T07:50:23;13.73;;;11.93;;
23400;SDS011;11873;49.300;8.920;2023-02-15T07:55:23;10.73;;;8.77;;
23400;SDS011;11873;49.300;8.920;2023-02-15T08:00:23;14.20;;;11.20;;
23400;SDS011;11873;49.300;8.920;2023-02-15T08:05:24;14.57;;;10.73;;
23400;SDS011;11873;49.300;8.920;2023-02-15T08:10:24;13.20;;;11.67;;
23400;SDS011;11873;49.300;8.920;2023-02-15T08:15:24;12.30;;;10.17;;
23400;SDS011;11873;49.300;8.920;2023-02-15T08:20:24;12.93;;;10.80;;
23400;SDS011;11873;49.300;8.920;2023-02-15T08:25:24;12.10;;;9.93;;
23400;SDS011;11873;49.300;8.920;2023-02-15T08:30:25;12.27;;;10.73;;
23400;SDS011;11873;49.300;8.920;2023-02-15T08:35:25;12.90;;;10.90;;
23400;SDS011;11873;49.300;8.920;2023-02-15T08:40:25;11.93;;;10.63;;
23400;SDS011;11873;49.300;8.920;2023-02-15T08:45:25;14.97;;;11.20;;
23400;SDS011;11873;49.300;8.920;2023-02-15T08:50:25;12.37;;;10.87;;
23400;SDS011;11873;49.300;8.920;2023-02-15T08:55:26;14.67;;;11.07;;
23400;SDS011;11873;49.300;8.920;2023-02-15T09:00:26;14.00;;;11.37;;
23400;SDS011;11873;49.300;8.920;2023-02-15T09:05:26;15.33;;;12.17;;
23400;SDS011;11873;49.300;8.920;2023-02-15T09:10:26;13.17;;;11.00;;
23400;SDS011;11873;49.300;8.920;2023-02-15T09:15:27;13.07;;;11.27;;
23400;SDS011;11873;49.300;8.920;2023-02-15T09:20:27;14.43;;;11.30;;
23400;SDS011;11873;49.300;8.920;2023-02-15T09:25:27;12.93;;;11.53;;
23400;SDS011;11873;49.300;8.920;2023-02-15T09:30:27;12.50;;;9.80;;
23400;SDS011;11873;49.300;8.920;2023-02-15T09:35:28;14.23;;;11.67;;
23400;SDS011;11873;49.300;8.920;2023-02-15T09:40:28;13.23;;;10.93;;
23400;SDS011;11873;49.300;8.920;2023-02-15T09:45:32;12.60;;;10.97;;
23400;SDS011;11873;49.300;8.920;2023-02-15T10:00:58;14.27;;;11.87;;
23400;SDS011;11873;49.300;8.920;2023-02-15T10:06:10;15.83;;;11.87;;
23400;SDS011;11873;49.300;8.920;2023-02-15T10:11:17;13.50;;;11.33;;
23400;SDS011;11873;49.300;8.920;2023-02-15T10:26:44;14.43;;;12.47;;
23400;SDS011;11873;49.300;8.920;2023-02-15T10:31:50;14.07;;;12.40;;
23400;SDS011;11873;49.300;8.920;2023-02-15T11:08:20;14.07;;;12.23;;
23400;SDS011;11873;49.300;8.920;2023-02-15T11:13:23;14.73;;;12.77;;
23400;SDS011;11873;49.300;8.920;2023-02-15T11:18:32;17.70;;;13.80;;
23400;SDS011;11873;49.300;8.920;2023-02-15T11:23:33;18.07;;;14.23;;
23400;SDS011;11873;49.300;8.920;2023-02-15T11:28:39;18.00;;;13.33;;
23400;SDS011;11873;49.300;8.920;2023-02-15T11:33:42;17.63;;;13.63;;
23400;SDS011;11873;49.300;8.920;2023-02-15T11:38:44;17.63;;;14.10;;
23400;SDS011;11873;49.300;8.920;2023-02-15T11:43:50;15.63;;;13.13;;
23400;SDS011;11873;49.300;8.920;2023-02-15T11:48:53;15.03;;;11.97;;
23400;SDS011;11873;49.300;8.920;2023-02-15T11:53:53;16.17;;;13.10;;
23400;SDS011;11873;49.300;8.920;2023-02-15T11:59:23;16.13;;;12.73;;
23400;SDS011;11873;49.300;8.920;2023-02-15T12:14:20;16.13;;;12.37;;
23400;SDS011;11873;49.300;8.920;2023-02-15T12:24:22;16.83;;;12.90;;
23400;SDS011;11873;49.300;8.920;2023-02-15T12:29:24;17.87;;;13.40;;
23400;SDS011;11873;49.300;8.920;2023-02-15T12:34:30;16.20;;;12.83;;
23400;SDS011;11873;49.300;8.920;2023-02-15T12:39:31;15.17;;;12.00;;
23400;SDS011;11873;49.300;8.920;2023-02-15T12:44:32;14.27;;;10.00;;
23400;SDS011;11873;49.300;8.920;2023-02-15T12:49:36;17.03;;;13.37;;
23400;SDS011;11873;49.300;8.920;2023-02-15T12:54:38;14.77;;;11.73;;
23400;SDS011;11873;49.300;8.920;2023-02-15T13:00:39;13.00;;;10.83;;
23400;SDS011;11873;49.300;8.920;2023-02-15T13:10:28;14.67;;;12.33;;
23400;SDS011;11873;49.300;8.920;2023-02-15T13:15:34;15.33;;;12.40;;
23400;SDS011;11873;49.300;8.920;2023-02-15T13:20:35;13.77;;;11.53;;
23400;SDS011;11873;49.300;8.920;2023-02-15T13:25:42;15.03;;;12.17;;
23400;SDS011;11873;49.300;8.920;2023-02-15T13:30:45;15.03;;;12.57;;
23400;SDS011;11873;49.300;8.920;2023-02-15T13:35:48;14.20;;;11.50;;
23400;SDS011;11873;49.300;8.920;2023-02-15T13:40:53;17.57;;;13.10;;
23400;SDS011;11873;49.300;8.920;2023-02-15T13:46:38;13.70;;;11.57;;
23400;SDS011;11873;49.300;8.920;2023-02-15T13:56:31;14.00;;;11.83;;
23400;SDS011;11873;49.300;8.920;2023-02-15T14:17:09;10.17;;;7.73;;
23400;SDS011;11873;49.300;8.920;2023-02-15T14:22:31;14.60;;;11.30;;
23400;SDS011;11873;49.300;8.920;2023-02-15T14:27:42;14.77;;;12.57;;
23400;SDS011;11873;49.300;8.920;2023-02-15T14:32:53;12.23;;;10.70;;
23400;SDS011;11873;49.300;8.920;2023-02-15T14:43:02;13.27;;;10.70;;
23400;SDS011;11873;49.300;8.920;2023-02-15T14:58:24;14.67;;;11.23;;
23400;SDS011;11873;49.300;8.920;2023-02-15T15:03:25;15.63;;;11.73;;
23400;SDS011;11873;49.300;8.920;2023-02-15T15:08:26;14.43;;;11.40;;
23400;SDS011;11873;49.300;8.920;2023-02-15T15:18:52;14.23;;;12.70;;
23400;SDS011;11873;49.300;8.920;2023-02-15T15:23:52;12.30;;;9.07;;
23400;SDS011;11873;49.300;8.920;2023-02-15T15:28:53;14.63;;;12.07;;
23400;SDS011;11873;49.300;8.920;2023-02-15T15:39:29;14.10;;;11.30;;
23400;SDS011;11873;49.300;8.920;2023-02-15T15:49:38;16.47;;;13.07;;
23400;SDS011;11873;49.300;8.920;2023-02-15T15:54:38;13.30;;;10.90;;
23400;SDS011;11873;49.300;8.920;2023-02-15T15:59:43;16.40;;;12.77;;
23400;SDS011;11873;49.300;8.920;2023-02-15T16:04:44;14.47;;;11.17;;
23400;SDS011;11873;49.300;8.920;2023-02-15T16:14:57;17.07;;;12.57;;
23400;SDS011;11873;49.300;8.920;2023-02-15T16:20:02;17.80;;;13.23;;
23400;SDS011;11873;49.300;8.920;2023-02-15T16:30:31;28.57;;;22.10;;
23400;SDS011;11873;49.300;8.920;2023-02-15T16:35:32;20.80;;;15.57;;
23400;SDS011;11873;49.300;8.920;2023-02-15T16:45:39;20.00;;;15.30;;
23400;SDS011;11873;49.300;8.920;2023-02-15T16:50:39;19.53;;;15.10;;
23400;SDS011;11873;49.300;8.920;2023-02-15T16:55:40;21.67;;;19.30;;
23400;SDS011;11873;49.300;8.920;2023-02-15T17:00:41;26.17;;;17.50;;
23400;SDS011;11873;49.300;8.920;2023-02-15T17:05:42;20.23;;;15.33;;
23400;SDS011;11873;49.300;8.920;2023-02-15T17:10:44;24.90;;;18.93;;
23400;SDS011;11873;49.300;8.920;2023-02-15T17:21:01;21.43;;;17.63;;
23400;SDS011;11873;49.300;8.920;2023-02-15T17:26:15;22.83;;;19.07;;
23400;SDS011;11873;49.300;8.920;2023-02-15T17:31:18;21.93;;;16.97;;
23400;SDS011;11873;49.300;8.920;2023-02-15T17:36:19;19.27;;;16.20;;
23400;SDS011;11873;49.300;8.920;2023-02-15T17:41:20;20.70;;;16.07;;
23400;SDS011;11873;49.300;8.920;2023-02-15T17:46:20;48.27;;;27.70;;
23400;SDS011;11873;49.300;8.920;2023-02-15T17:51:20;49.00;;;26.80;;
23400;SDS011;11873;49.300;8.920;2023-02-15T17:56:20;50.83;;;28.10;;
23400;SDS011;11873;49.300;8.920;2023-02-15T18:01:21;25.20;;;19.33;;
23400;SDS011;11873;49.300;8.920;2023-02-15T18:06:21;19.10;;;15.10;;
23400;SDS011;11873;49.300;8.920;2023-02-15T18:11:21;23.77;;;17.27;;
23400;SDS011;11873;49.300;8.920;2023-02-15T18:16:22;24.97;;;20.93;;
23400;SDS011;11873;49.300;8.920;2023-02-15T18:21:23;27.67;;;22.60;;
23400;SDS011;11873;49.300;8.920;2023-02-15T18:26:24;24.33;;;19.53;;
23400;SDS011;11873;49.300;8.920;2023-02-15T18:31:24;22.97;;;18.53;;
23400;SDS011;11873;49.300;8.920;2023-02-15T18:36:25;25.07;;;18.27;;
23400;SDS011;11873;49.300;8.920;2023-02-15T18:41:26;20.40;;;16.80;;
23400;SDS011;11873;49.300;8.920;2023-02-15T18:46:26;24.00;;;18.40;;
23400;SDS011;11873;49.300;8.920;2023-02-15T18:51:27;24.67;;;19.53;;
23400;SDS011;11873;49.300;8.920;2023-02-15T18:56:28;19.27;;;16.40;;
23400;SDS011;11873;49.300;8.920;2023-02-15T19:01:29;21.43;;;15.17;;
23400;SDS011;11873;49.300;8.920;2023-02-15T19:06:29;18.07;;;14.73;;
23400;SDS011;11873;49.300;8.920;2023-02-15T19:11:29;17.25;;;13.75;;
23400;SDS011;11873;49.300;8.920;2023-02-15T19:16:31;18.63;;;14.23;;
23400;SDS011;11873;49.300;8.920;2023-02-15T19:21:31;19.57;;;15.23;;
23400;SDS011;11873;49.300;8.920;2023-02-15T19:26:32;18.43;;;14.07;;
23400;SDS011;11873;49.300;8.920;2023-02-15T19:31:33;17.40;;;15.00;;
23400;SDS011;11873;49.300;8.920;2023-02-15T19:36:33;16.10;;;14.27;;
23400;SDS011;11873;49.300;8.920;2023-02-15T19:41:34;16.83;;;13.50;;
23400;SDS011;11873;49.300;8.920;2023-02-15T19:46:34;14.80;;;11.23;;
23400;SDS011;11873;49.300;8.920;2023-02-15T19:51:34;15.87;;;12.23;;
23400;SDS011;11873;49.300;8.920;2023-02-15T19:56:34;14.40;;;11.90;;
23400;SDS011;11873;49.300;8.920;2023-02-15T20:01:35;15.23;;;13.48;;
23400;SDS011;11873;49.300;8.920;2023-02-15T20:06:35;17.70;;;13.90;;
23400;SDS011;11873;49.300;8.920;2023-02-15T20:11:35;15.23;;;12.67;;
23400;SDS011;11873;49.300;8.920;2023-02-15T20:16:35;15.40;;;12.40;;
23400;SDS011;11873;49.300;8.920;2023-02-15T20:21:35;12.93;;;11.40;;
23400;SDS011;11873;49.300;8.920;2023-02-15T20:26:36;13.60;;;11.63;;
23400;SDS011;11873;49.300;8.920;2023-02-15T20:31:36;12.17;;;10.87;;
23400;SDS011;11873;49.300;8.920;2023-02-15T20:36:37;15.57;;;11.57;;
23400;SDS011;11873;49.300;8.920;2023-02-15T20:41:37;13.80;;;12.17;;
23400;SDS011;11873;49.300;8.920;2023-02-15T20:46:37;15.83;;;12.20;;
23400;SDS011;11873;49.300;8.920;2023-02-15T20:51:38;16.93;;;13.13;;
23400;SDS011;11873;49.300;8.920;2023-02-15T20:56:38;13.60;;;11.53;;
23400;SDS011;11873;49.300;8.920;2023-02-15T21:01:38;14.10;;;12.67;;
23400;SDS011;11873;49.300;8.920;2023-02-15T21:06:38;18.73;;;16.27;;
23400;SDS011;11873;49.300;8.920;2023-02-15T21:11:38;18.43;;;13.63;;
23400;SDS011;11873;49.300;8.920;2023-02-15T21:16:39;14.93;;;12.97;;
23400;SDS011;11873;49.300;8.920;2023-02-15T21:21:39;18.67;;;14.00;;
23400;SDS011;11873;49.300;8.920;2023-02-15T21:26:40;19.23;;;16.70;;
23400;SDS011;11873;49.300;8.920;2023-02-15T21:31:42;15.20;;;12.67;;
23400;SDS011;11873;49.300;8.920;2023-02-15T21:36:43;15.33;;;13.00;;
23400;SDS011;11873;49.300;8.920;2023-02-15T21:41:44;14.40;;;12.90;;
23400;SDS011;11873;49.300;8.920;2023-02-15T21:46:45;19.33;;;15.37;;
23400;SDS011;11873;49.300;8.920;2023-02-15T21:51:45;18.53;;;15.63;;
23400;SDS011;11873;49.300;8.920;2023-02-15T21:56:46;19.13;;;16.23;;
23400;SDS011;11873;49.300;8.920;2023-02-15T22:01:47;19.10;;;14.43;;
23400;SDS011;11873;49.300;8.920;2023-02-15T22:06:47;17.47;;;14.27;;
23400;SDS011;11873;49.300;8.920;2023-02-15T22:11:48;18.50;;;15.73;;
23400;SDS011;11873;49.300;8.920;2023-02-15T22:16:48;19.93;;;16.30;;
23400;SDS011;11873;49.300;8.920;2023-02-15T22:21:48;20.23;;;15.93;;
23400;SDS011;11873;49.300;8.920;2023-02-15T22:26:48;22.67;;;17.97;;
23400;SDS011;11873;49.300;8.920;2023-02-15T22:31:49;17.00;;;15.13;;
23400;SDS011;11873;49.300;8.920;2023-02-15T22:36:49;17.90;;;15.50;;
23400;SDS011;11873;49.300;8.920;2023-02-15T22:41:52;19.03;;;16.20;;
23400;SDS011;11873;49.300;8.920;2023-02-15T22:46:53;20.13;;;15.43;;
23400;SDS011;11873;49.300;8.920;2023-02-15T22:51:53;19.87;;;16.50;;
23400;SDS011;11873;49.300;8.920;2023-02-15T22:56:53;22.07;;;17.83;;
23400;SDS011;11873;49.300;8.920;2023-02-15T23:01:57;31.77;;;24.40;;
23400;SDS011;11873;49.300;8.920;2023-02-15T23:06:57;26.27;;;20.23;;
23400;SDS011;11873;49.300;8.920;2023-02-15T23:11:57;27.70;;;20.87;;
23400;SDS011;11873;49.300;8.920;2023-02-15T23:16:57;26.53;;;20.97;;
23400;SDS011;11873;49.300;8.920;2023-02-15T23:21:57;24.40;;;19.40;;
23400;SDS011;11873;49.300;8.920;2023-02-15T23:26:58;25.00;;;18.87;;
23400;SDS011;11873;49.300;8.920;2023-02-15T23:31:58;22.03;;;18.63;;
23400;SDS011;11873;49.300;8.920;2023-02-15T23:36:58;19.87;;;16.17;;
23400;SDS011;11873;49.300;8.920;2023-02-15T23:41:58;19.23;;;15.87;;
23400;SDS011;11873;49.300;8.920;2023-02-15T23:46:59;22.60;;;17.40;;
23400;SDS011;11873;49.300;8.920;2023-02-15T23:51:59;20.23;;;15.83;;
23400;SDS011;11873;49.300;8.920;2023-02-15T23:56:59;17.07;;;15.23;;
